createdAt,value
2022-11-29T00:00:34.046Z,98.81
2022-11-29T00:02:36.463Z,98.88
2022-11-29T00:04:38.694Z,98.98
2022-11-29T00:06:40.742Z,99.06
2022-11-29T00:08:43.684Z,98.89
2022-11-29T00:10:45.869Z,99.40
2022-11-29T00:12:48.487Z,99.29
2022-11-29T00:14:51.581Z,99.50
2022-11-29T00:16:57.082Z,99.27
2022-11-29T00:18:59.228Z,99.61
2022-11-29T00:21:08.883Z,99.11
2022-11-29T00:23:11.625Z,99.53
2022-11-29T00:25:13.757Z,99.81
2022-11-29T00:27:16.421Z,100.00
2022-11-29T00:29:18.914Z,99.98
2022-11-29T00:31:25.211Z,100.00
2022-11-29T00:33:28.123Z,99.91
2022-11-29T00:35:30.800Z,100.00
2022-11-29T00:37:33.008Z,100.00
2022-11-29T00:39:35.353Z,100.00
2022-11-29T00:41:38.018Z,100.00
2022-11-29T00:43:39.967Z,100.00
2022-11-29T00:45:42.181Z,100.00
2022-11-29T00:47:44.367Z,100.00
2022-11-29T00:49:47.079Z,100.00
2022-11-29T00:51:49.190Z,100.00
2022-11-29T00:53:51.300Z,100.00
2022-11-29T00:55:53.971Z,100.00
2022-11-29T00:57:56.193Z,100.00
2022-11-29T00:59:58.205Z,100.00
2022-11-29T01:02:00.418Z,100.00
2022-11-29T01:04:02.461Z,100.00
2022-11-29T01:06:11.987Z,100.00
2022-11-29T01:08:15.458Z,100.00
2022-11-29T01:10:17.581Z,100.00
2022-11-29T01:12:19.805Z,100.00
2022-11-29T01:14:21.801Z,99.86
2022-11-29T01:16:24.350Z,100.00
2022-11-29T01:18:26.947Z,99.76
2022-11-29T01:20:29.185Z,99.49
2022-11-29T01:22:31.308Z,99.41
2022-11-29T01:24:33.372Z,99.42
2022-11-29T01:26:35.669Z,99.61
2022-11-29T01:28:40.396Z,100.00
2022-11-29T01:30:42.501Z,99.75
2022-11-29T01:32:44.533Z,99.73
2022-11-29T01:34:46.918Z,99.66
2022-11-29T01:36:49.099Z,99.92
2022-11-29T01:38:51.571Z,99.70
2022-11-29T01:41:03.653Z,99.51
2022-11-29T01:43:15.203Z,99.57
2022-11-29T01:45:26.692Z,99.61
2022-11-29T01:47:29.551Z,99.60
2022-11-29T01:49:41.562Z,99.65
2022-11-29T01:51:49.249Z,99.95
2022-11-29T01:53:51.559Z,99.67
2022-11-29T01:56:01.458Z,99.21
2022-11-29T01:58:06.709Z,99.52
2022-11-29T02:00:16.245Z,99.05
2022-11-29T02:02:25.156Z,99.25
2022-11-29T02:04:27.589Z,98.52
2022-11-29T02:06:30.623Z,98.34
2022-11-29T02:08:38.375Z,98.75
2022-11-29T02:10:55.719Z,98.59
2022-11-29T02:13:12.575Z,98.37
2022-11-29T02:15:20.189Z,99.07
2022-11-29T02:17:37.008Z,98.61
2022-11-29T02:20:10.360Z,98.81
2022-11-29T02:22:50.261Z,98.91
2022-11-29T02:25:11.208Z,99.22
2022-11-29T02:27:23.265Z,99.14
2022-11-29T02:30:02.549Z,99.21
2022-11-29T02:32:35.157Z,99.11
2022-11-29T02:35:01.839Z,99.14
2022-11-29T02:37:54.833Z,98.84
2022-11-29T02:40:18.270Z,98.66
2022-11-29T02:43:06.681Z,98.42
2022-11-29T02:45:35.157Z,97.95
2022-11-29T02:47:54.070Z,97.82
2022-11-29T02:49:56.230Z,97.45
2022-11-29T02:52:06.489Z,97.92
2022-11-29T02:54:26.670Z,98.28
2022-11-29T02:56:54.773Z,97.72
2022-11-29T02:59:31.716Z,97.63
2022-11-29T03:02:00.302Z,97.65
2022-11-29T03:04:44.150Z,97.06
2022-11-29T03:07:04.715Z,97.10
2022-11-29T03:09:06.950Z,97.39
2022-11-29T03:11:20.666Z,96.95
2022-11-29T03:13:41.426Z,98.01
2022-11-29T03:15:52.863Z,98.15
2022-11-29T03:18:02.282Z,98.04
2022-11-29T03:20:28.119Z,97.89
2022-11-29T03:22:48.204Z,97.45
2022-11-29T03:24:59.509Z,97.51
2022-11-29T03:27:06.972Z,97.40
2022-11-29T03:29:27.124Z,97.27
2022-11-29T03:31:32.833Z,96.69
2022-11-29T03:34:04.499Z,96.99
2022-11-29T03:36:33.965Z,96.94
2022-11-29T03:38:43.212Z,96.85
2022-11-29T03:41:10.335Z,96.72
2022-11-29T03:43:50.556Z,96.16
2022-11-29T03:45:56.229Z,96.04
2022-11-29T03:48:08.122Z,96.19
2022-11-29T03:50:18.606Z,95.99
2022-11-29T03:52:52.406Z,96.47
2022-11-29T03:55:12.986Z,96.56
2022-11-29T03:57:25.942Z,96.00
2022-11-29T03:59:56.159Z,96.09
2022-11-29T04:02:32.119Z,95.98
2022-11-29T04:04:53.347Z,96.13
2022-11-29T04:06:55.313Z,95.65
2022-11-29T04:09:06.614Z,96.44
2022-11-29T04:11:27.489Z,96.09
2022-11-29T04:13:56.731Z,96.67
2022-11-29T04:16:11.581Z,96.47
2022-11-29T04:18:32.386Z,96.50
2022-11-29T04:21:21.972Z,96.18
2022-11-29T04:23:40.587Z,95.98
2022-11-29T04:26:04.052Z,96.40
2022-11-29T04:28:25.084Z,96.49
2022-11-29T04:30:33.838Z,96.18
2022-11-29T04:33:20.203Z,95.67
2022-11-29T04:35:43.461Z,95.85
2022-11-29T04:38:06.794Z,96.36
2022-11-29T04:40:51.959Z,96.81
2022-11-29T04:43:15.288Z,96.74
2022-11-29T04:45:20.134Z,96.44
2022-11-29T04:48:23.770Z,96.62
2022-11-29T04:50:47.597Z,96.28
2022-11-29T04:53:09.364Z,95.22
2022-11-29T04:55:43.570Z,95.18
2022-11-29T04:57:58.035Z,95.24
2022-11-29T05:00:12.397Z,94.99
2022-11-29T05:02:44.597Z,95.12
2022-11-29T05:04:50.981Z,94.35
2022-11-29T05:07:14.237Z,93.91
2022-11-29T05:09:31.261Z,94.53
2022-11-29T05:12:24.614Z,94.40
2022-11-29T05:15:04.398Z,94.68
2022-11-29T05:17:36.488Z,94.56
2022-11-29T05:20:03.915Z,93.78
2022-11-29T05:22:25.878Z,93.66
2022-11-29T05:24:28.865Z,93.19
2022-11-29T05:26:36.679Z,92.68
2022-11-29T05:29:10.229Z,92.49
2022-11-29T05:31:27.092Z,92.88
2022-11-29T05:33:35.320Z,92.54
2022-11-29T05:35:55.057Z,92.17
2022-11-29T05:38:42.030Z,92.10
2022-11-29T05:40:57.314Z,92.13
2022-11-29T05:43:06.855Z,92.95
2022-11-29T05:45:17.881Z,93.03
2022-11-29T05:47:32.724Z,93.18
2022-11-29T05:49:41.676Z,92.78
2022-11-29T05:52:17.628Z,93.17
2022-11-29T05:54:36.131Z,92.19
2022-11-29T05:57:06.878Z,92.10
2022-11-29T05:59:15.868Z,91.76
2022-11-29T06:01:30.061Z,91.61
2022-11-29T06:03:57.359Z,91.57
2022-11-29T06:06:08.335Z,91.34
2022-11-29T06:08:48.701Z,91.15
2022-11-29T06:11:06.072Z,90.71
2022-11-29T06:13:48.359Z,90.21
2022-11-29T06:16:02.498Z,89.89
2022-11-29T06:18:28.700Z,90.52
2022-11-29T06:21:00.262Z,90.35
2022-11-29T06:23:24.752Z,90.27
2022-11-29T06:25:50.027Z,90.34
2022-11-29T06:28:10.801Z,90.21
2022-11-29T06:30:20.931Z,90.22
2022-11-29T06:32:40.387Z,90.38
2022-11-29T06:34:54.500Z,90.21
2022-11-29T06:37:09.421Z,90.10
2022-11-29T06:39:12.124Z,89.79
2022-11-29T06:41:22.309Z,88.88
2022-11-29T06:43:26.050Z,89.20
2022-11-29T06:45:28.728Z,88.81
2022-11-29T06:47:44.510Z,87.82
2022-11-29T06:50:01.413Z,86.99
2022-11-29T06:52:31.847Z,86.92
2022-11-29T06:54:48.926Z,87.39
2022-11-29T06:57:12.497Z,88.09
2022-11-29T06:59:17.410Z,88.30
2022-11-29T07:01:37.976Z,87.52
2022-11-29T07:03:43.125Z,87.73
2022-11-29T07:05:46.699Z,87.98
2022-11-29T07:07:49.721Z,87.78
2022-11-29T07:09:59.685Z,87.74
2022-11-29T07:12:02.349Z,88.07
2022-11-29T07:14:04.851Z,87.88
2022-11-29T07:16:26.208Z,87.56
2022-11-29T07:18:36.951Z,87.33
2022-11-29T07:21:15.248Z,87.22
2022-11-29T07:23:36.475Z,86.85
2022-11-29T07:26:02.764Z,86.53
2022-11-29T07:28:38.931Z,86.50
2022-11-29T07:30:53.178Z,86.14
2022-11-29T07:33:09.126Z,86.59
2022-11-29T07:35:32.874Z,86.33
2022-11-29T07:37:46.897Z,85.75
2022-11-29T07:40:06.817Z,85.40
2022-11-29T07:42:23.558Z,84.96
2022-11-29T07:44:55.418Z,84.64
2022-11-29T07:46:57.832Z,84.75
2022-11-29T07:49:00.084Z,84.83
2022-11-29T07:51:02.647Z,85.16
2022-11-29T07:53:15.749Z,84.70
2022-11-29T07:55:21.398Z,84.45
2022-11-29T07:57:23.669Z,84.65
2022-11-29T07:59:27.483Z,84.47
2022-11-29T08:01:29.751Z,84.03
2022-11-29T08:03:33.089Z,84.28
2022-11-29T08:05:36.443Z,83.99
2022-11-29T08:07:40.345Z,83.56
2022-11-29T08:09:44.377Z,83.31
2022-11-29T08:11:49.000Z,82.70
2022-11-29T08:13:51.382Z,82.36
2022-11-29T08:15:53.504Z,82.26
2022-11-29T08:17:55.640Z,82.19
2022-11-29T08:20:01.247Z,81.33
2022-11-29T08:22:06.089Z,81.50
2022-11-29T08:24:08.417Z,81.66
2022-11-29T08:26:10.389Z,82.12
2022-11-29T08:28:12.634Z,82.26
2022-11-29T08:30:15.068Z,81.21
2022-11-29T08:32:17.402Z,80.34
2022-11-29T08:34:20.303Z,79.01
2022-11-29T08:36:22.222Z,79.33
2022-11-29T08:38:24.711Z,79.65
2022-11-29T08:40:27.136Z,79.96
2022-11-29T08:42:29.204Z,80.62
2022-11-29T08:44:31.474Z,80.38
2022-11-29T08:46:52.290Z,80.14
2022-11-29T08:48:54.454Z,80.10
2022-11-29T08:50:56.874Z,80.24
2022-11-29T08:53:17.225Z,79.86
2022-11-29T08:55:25.950Z,78.98
2022-11-29T08:57:39.772Z,78.18
2022-11-29T08:59:45.012Z,77.39
2022-11-29T09:01:47.230Z,77.83
2022-11-29T09:04:05.257Z,78.45
2022-11-29T09:06:15.044Z,78.36
2022-11-29T09:08:17.289Z,78.26
2022-11-29T09:10:19.432Z,78.03
2022-11-29T09:12:21.532Z,77.96
2022-11-29T09:14:23.510Z,77.69
2022-11-29T09:16:27.946Z,77.64
2022-11-29T09:18:30.262Z,77.66
2022-11-29T09:20:32.671Z,76.57
2022-11-29T09:22:34.752Z,77.35
2022-11-29T09:24:37.002Z,77.15
2022-11-29T09:26:42.042Z,77.22
2022-11-29T09:28:44.243Z,77.18
2022-11-29T09:30:46.294Z,76.72
2022-11-29T09:32:48.386Z,76.41
2022-11-29T09:34:50.535Z,76.21
2022-11-29T09:36:52.638Z,75.92
2022-11-29T09:38:54.730Z,76.50
2022-11-29T09:41:05.322Z,76.93
2022-11-29T09:43:21.510Z,77.15
2022-11-29T09:45:43.287Z,77.43
2022-11-29T09:48:21.041Z,77.66
2022-11-29T09:50:32.537Z,79.13
2022-11-29T09:52:43.313Z,79.33
2022-11-29T09:55:01.851Z,78.73
2022-11-29T09:57:10.529Z,78.21
2022-11-29T09:59:27.554Z,77.96
2022-11-29T10:01:43.176Z,78.45
2022-11-29T10:03:51.994Z,78.66
2022-11-29T10:06:04.059Z,79.20
2022-11-29T10:08:44.112Z,79.63
2022-11-29T10:10:48.770Z,79.75
2022-11-29T10:13:00.186Z,79.88
2022-11-29T10:15:14.131Z,80.39
2022-11-29T10:17:32.496Z,80.46
2022-11-29T10:19:42.788Z,80.70
2022-11-29T10:21:54.269Z,80.51
2022-11-29T10:24:01.774Z,80.75
2022-11-29T10:26:08.224Z,80.59
2022-11-29T10:28:16.267Z,80.79
2022-11-29T10:30:18.651Z,80.85
2022-11-29T10:32:21.543Z,80.62
2022-11-29T10:34:25.743Z,80.64
2022-11-29T10:36:39.101Z,81.33
2022-11-29T10:38:43.286Z,81.31
2022-11-29T10:40:49.154Z,81.05
2022-11-29T10:42:54.922Z,81.09
2022-11-29T10:44:58.705Z,81.47
2022-11-29T10:47:10.409Z,81.16
2022-11-29T10:49:17.140Z,82.15
2022-11-29T10:51:19.887Z,81.72
2022-11-29T10:53:36.126Z,81.65
2022-11-29T10:56:07.172Z,81.76
2022-11-29T10:58:27.904Z,81.30
2022-11-29T11:00:31.049Z,81.26
2022-11-29T11:02:34.963Z,81.24
2022-11-29T11:04:45.422Z,81.10
2022-11-29T11:06:52.855Z,81.58
2022-11-29T11:09:11.522Z,82.23
2022-11-29T11:11:15.257Z,82.29
2022-11-29T11:13:29.896Z,82.58
2022-11-29T11:15:33.505Z,82.35
2022-11-29T11:17:39.962Z,82.39
2022-11-29T11:19:42.720Z,82.17
2022-11-29T11:21:45.141Z,81.84
2022-11-29T11:23:57.758Z,82.06
2022-11-29T11:26:06.675Z,81.52
2022-11-29T11:28:25.810Z,82.08
2022-11-29T11:30:30.176Z,82.04
2022-11-29T11:32:32.620Z,82.81
2022-11-29T11:34:37.595Z,82.96
2022-11-29T11:36:39.856Z,82.74
2022-11-29T11:38:55.791Z,83.32
2022-11-29T11:41:09.848Z,82.93
2022-11-29T11:43:21.625Z,82.73
2022-11-29T11:45:33.789Z,83.23
2022-11-29T11:47:41.506Z,82.69
2022-11-29T11:49:50.224Z,83.44
2022-11-29T11:51:52.495Z,83.69
2022-11-29T11:53:58.060Z,83.74
2022-11-29T11:56:03.030Z,84.24
2022-11-29T11:58:10.356Z,84.25
2022-11-29T12:03:24.918Z,85.61
2022-11-29T12:05:27.101Z,85.90
2022-11-29T12:08:07.246Z,85.81
2022-11-29T12:10:11.478Z,86.18
2022-11-29T12:12:29.714Z,86.44
2022-11-29T12:14:44.995Z,86.30
2022-11-29T12:16:54.930Z,86.49
2022-11-29T12:19:18.928Z,86.95
2022-11-29T12:21:28.277Z,87.44
2022-11-29T12:23:45.995Z,87.12
2022-11-29T12:25:58.017Z,87.48
2022-11-29T12:28:00.411Z,87.37
2022-11-29T12:30:02.886Z,87.85
2022-11-29T12:32:16.191Z,87.81
2022-11-29T12:34:22.773Z,88.42
2022-11-29T12:37:11.293Z,88.34
2022-11-29T12:39:21.680Z,88.76
2022-11-29T12:41:32.736Z,89.05
2022-11-29T12:44:05.416Z,89.38
2022-11-29T12:46:19.874Z,89.74
2022-11-29T12:48:52.469Z,89.66
2022-11-29T12:51:02.577Z,90.21
2022-11-29T12:53:25.526Z,90.32
2022-11-29T12:55:44.485Z,91.01
2022-11-29T12:58:14.342Z,91.28
2022-11-29T13:00:20.384Z,91.73
2022-11-29T13:02:50.586Z,91.82
2022-11-29T13:05:09.986Z,92.35
2022-11-29T13:07:44.330Z,92.85
2022-11-29T13:10:14.942Z,93.05
2022-11-29T13:12:26.970Z,93.42
2022-11-29T13:14:44.863Z,93.92
2022-11-29T13:16:56.910Z,94.08
2022-11-29T13:19:21.023Z,94.33
2022-11-29T13:21:34.916Z,94.84
2022-11-29T13:24:09.022Z,94.66
2022-11-29T13:26:13.741Z,94.89
2022-11-29T13:28:24.140Z,94.96
2022-11-29T13:30:26.833Z,95.07
2022-11-29T13:32:35.979Z,95.28
2022-11-29T13:34:44.232Z,95.60
2022-11-29T13:37:21.097Z,95.39
2022-11-29T13:39:42.511Z,95.49
2022-11-29T13:42:07.839Z,95.84
2022-11-29T13:44:33.017Z,95.83
2022-11-29T13:47:11.249Z,95.84
2022-11-29T13:49:41.008Z,96.06
2022-11-29T13:51:43.282Z,95.97
2022-11-29T13:53:49.068Z,95.95
2022-11-29T13:56:02.722Z,95.67
2022-11-29T13:58:16.707Z,95.77
2022-11-29T14:00:44.365Z,95.74
2022-11-29T14:02:46.550Z,95.46
2022-11-29T14:04:48.621Z,95.68
2022-11-29T14:07:01.240Z,95.67
2022-11-29T14:09:25.555Z,95.58
2022-11-29T14:11:43.612Z,95.99
2022-11-29T14:13:59.610Z,95.65
2022-11-29T14:16:05.677Z,95.64
2022-11-29T14:18:47.757Z,95.37
2022-11-29T14:20:57.613Z,95.52
2022-11-29T14:23:32.554Z,95.44
2022-11-29T14:25:57.847Z,95.20
2022-11-29T14:28:05.193Z,95.46
2022-11-29T14:30:35.780Z,95.03
2022-11-29T14:32:52.971Z,95.35
2022-11-29T14:35:08.246Z,95.41
2022-11-29T14:37:37.044Z,95.35
2022-11-29T14:39:49.880Z,95.40
2022-11-29T14:42:14.704Z,95.85
2022-11-29T14:44:22.170Z,95.52
2022-11-29T14:46:32.067Z,95.45
2022-11-29T14:48:37.037Z,95.59
2022-11-29T14:50:40.845Z,95.53
2022-11-29T14:52:52.717Z,95.59
2022-11-29T14:55:31.709Z,96.08
2022-11-29T14:57:53.433Z,95.57
2022-11-29T14:59:55.990Z,95.58
2022-11-29T15:02:00.965Z,96.03
2022-11-29T15:04:07.321Z,95.52
2022-11-29T15:06:15.717Z,95.91
2022-11-29T15:08:32.149Z,95.96
2022-11-29T15:10:45.855Z,95.58
2022-11-29T15:12:56.283Z,96.09
2022-11-29T15:15:34.180Z,95.92
2022-11-29T15:18:15.615Z,96.13
2022-11-29T15:20:21.210Z,96.31
2022-11-29T15:22:31.010Z,96.13
2022-11-29T15:25:01.332Z,96.25
2022-11-29T15:27:05.131Z,96.22
2022-11-29T15:29:15.296Z,96.20
2022-11-29T15:31:20.420Z,96.27
2022-11-29T15:33:25.553Z,96.23
2022-11-29T15:35:28.916Z,96.44
2022-11-29T15:37:31.172Z,96.53
2022-11-29T15:39:35.737Z,96.47
2022-11-29T15:41:38.159Z,96.51
2022-11-29T15:43:41.091Z,96.95
2022-11-29T15:45:51.186Z,96.49
2022-11-29T15:47:54.505Z,96.85
2022-11-29T15:49:56.943Z,97.10
2022-11-29T15:52:14.451Z,97.21
2022-11-29T15:54:31.401Z,97.05
2022-11-29T15:56:44.312Z,97.04
2022-11-29T15:58:48.308Z,97.42
2022-11-29T16:00:52.312Z,97.35
2022-11-29T16:03:00.221Z,97.31
2022-11-29T16:05:36.837Z,97.41
2022-11-29T16:07:40.441Z,97.33
2022-11-29T16:09:47.205Z,96.99
2022-11-29T16:11:49.680Z,96.98
2022-11-29T16:14:13.168Z,96.82
2022-11-29T16:16:20.483Z,96.67
2022-11-29T16:18:25.749Z,96.90
2022-11-29T16:20:28.878Z,96.48
2022-11-29T16:22:32.348Z,96.15
2022-11-29T16:24:36.850Z,96.26
2022-11-29T16:26:43.109Z,96.37
2022-11-29T16:28:48.985Z,95.96
2022-11-29T16:30:51.245Z,96.08
2022-11-29T16:32:55.506Z,96.11
2022-11-29T16:35:07.091Z,96.00
2022-11-29T16:37:22.433Z,96.05
2022-11-29T16:39:25.686Z,95.97
2022-11-29T16:41:33.445Z,96.41
2022-11-29T16:43:47.522Z,96.11
2022-11-29T16:46:35.866Z,96.22
2022-11-29T16:48:38.501Z,96.59
2022-11-29T16:50:41.156Z,96.41
2022-11-29T16:52:43.755Z,96.31
2022-11-29T16:54:46.335Z,96.59
2022-11-29T16:56:50.740Z,96.68
2022-11-29T16:59:24.688Z,96.68
2022-11-29T17:01:18.557Z,96.73
2022-11-29T17:03:20.830Z,96.76
2022-11-29T17:05:22.918Z,96.59
2022-11-29T17:07:32.157Z,96.64
2022-11-29T17:09:35.820Z,96.75
2022-11-29T17:11:38.002Z,97.21
2022-11-29T17:13:40.620Z,96.95
2022-11-29T17:15:42.624Z,97.06
2022-11-29T17:17:44.924Z,96.80
2022-11-29T17:19:46.957Z,96.98
2022-11-29T17:21:49.712Z,96.89
2022-11-29T17:23:53.436Z,96.89
2022-11-29T17:26:02.426Z,96.92
2022-11-29T17:28:18.821Z,96.55
2022-11-29T17:30:29.448Z,96.74
2022-11-29T17:32:35.332Z,97.02
2022-11-29T17:34:37.616Z,97.17
2022-11-29T17:36:40.703Z,97.01
2022-11-29T17:38:44.617Z,96.69
2022-11-29T17:40:46.760Z,96.88
2022-11-29T17:42:51.663Z,96.74
2022-11-29T17:44:53.896Z,96.52
2022-11-29T17:46:56.183Z,96.62
2022-11-29T17:49:03.151Z,96.72
2022-11-29T17:51:13.516Z,96.43
2022-11-29T17:53:30.767Z,96.87
2022-11-29T17:55:33.127Z,96.64
2022-11-29T17:57:35.214Z,96.61
2022-11-29T17:59:37.559Z,96.35
2022-11-29T18:01:39.935Z,96.45
2022-11-29T18:03:44.162Z,96.48
2022-11-29T18:05:46.508Z,96.17
2022-11-29T18:08:00.752Z,96.03
2022-11-29T18:10:02.982Z,96.33
2022-11-29T18:12:07.621Z,96.08
2022-11-29T18:14:11.366Z,96.26
2022-11-29T18:16:16.767Z,96.16
2022-11-29T18:18:18.973Z,96.04
2022-11-29T18:20:21.000Z,96.29
2022-11-29T18:22:23.995Z,95.95
2022-11-29T18:24:26.236Z,95.81
2022-11-29T18:26:28.832Z,95.88
2022-11-29T18:28:34.557Z,95.88
2022-11-29T18:30:36.711Z,95.90
2022-11-29T18:32:39.088Z,95.95
2022-11-29T18:34:41.054Z,95.97
2022-11-29T18:36:46.163Z,96.16
2022-11-29T18:38:48.998Z,96.41
2022-11-29T18:40:51.086Z,96.21
2022-11-29T18:42:53.233Z,96.16
2022-11-29T18:44:58.852Z,96.17
2022-11-29T18:47:01.305Z,96.42
2022-11-29T18:49:04.375Z,96.20
2022-11-29T18:51:14.383Z,96.14
2022-11-29T18:53:16.386Z,95.99
2022-11-29T18:55:18.418Z,96.12
2022-11-29T18:57:20.618Z,96.01
2022-11-29T18:59:23.149Z,96.04
2022-11-29T19:01:27.662Z,96.03
2022-11-29T19:03:30.238Z,96.25
2022-11-29T19:05:32.336Z,95.86
2022-11-29T19:07:35.207Z,95.88
2022-11-29T19:09:37.416Z,96.58
2022-11-29T19:11:39.630Z,96.06
2022-11-29T19:13:41.887Z,96.23
2022-11-29T19:15:44.085Z,96.23
2022-11-29T19:17:46.313Z,96.35
2022-11-29T19:19:49.000Z,96.36
2022-11-29T19:21:51.276Z,96.20
2022-11-29T19:23:55.682Z,96.02
2022-11-29T19:26:09.047Z,96.25
2022-11-29T19:28:14.232Z,96.15
2022-11-29T19:30:17.526Z,96.40
2022-11-29T19:32:20.161Z,96.44
2022-11-29T19:34:22.166Z,96.44
2022-11-29T19:36:29.819Z,96.36
2022-11-29T19:38:32.026Z,96.38
2022-11-29T19:40:34.830Z,96.01
2022-11-29T19:42:39.417Z,95.89
2022-11-29T19:45:14.718Z,95.76
2022-11-29T19:47:03.827Z,95.31
2022-11-29T19:49:06.482Z,95.26
2022-11-29T19:51:09.732Z,94.87
2022-11-29T19:53:12.002Z,94.66
2022-11-29T19:55:14.432Z,94.37
2022-11-29T19:57:16.714Z,94.18
2022-11-29T19:59:19.361Z,93.97
2022-11-29T20:01:39.207Z,93.84
2022-11-29T20:03:45.891Z,93.56
2022-11-29T20:05:56.222Z,93.63
2022-11-29T20:07:58.467Z,93.30
2022-11-29T20:10:00.848Z,93.21
2022-11-29T20:12:02.829Z,93.33
2022-11-29T20:14:06.134Z,92.68
2022-11-29T20:16:10.895Z,92.94
2022-11-29T20:18:13.502Z,93.10
2022-11-29T20:20:19.397Z,93.09
2022-11-29T20:22:21.561Z,93.17
2022-11-29T20:24:27.269Z,93.02
2022-11-29T20:26:32.301Z,92.83
2022-11-29T20:28:36.080Z,92.91
2022-11-29T20:30:38.357Z,92.99
2022-11-29T20:32:45.168Z,93.23
2022-11-29T20:34:47.671Z,92.88
2022-11-29T20:37:13.068Z,93.09
2022-11-29T20:39:35.886Z,92.68
2022-11-29T20:41:54.396Z,92.99
2022-11-29T20:49:28.841Z,92.44
2022-11-29T20:52:19.880Z,91.92
2022-11-29T20:54:25.926Z,92.41
2022-11-29T20:56:35.187Z,92.63
2022-11-29T20:58:38.745Z,93.10
2022-11-29T21:00:41.042Z,93.35
2022-11-29T21:02:49.518Z,93.02
2022-11-29T21:04:52.213Z,93.30
2022-11-29T21:06:56.858Z,93.72
2022-11-29T21:09:01.755Z,93.51
2022-11-29T21:11:07.403Z,93.11
2022-11-29T21:13:18.358Z,92.99
2022-11-29T21:15:22.618Z,93.15
2022-11-29T21:17:54.273Z,93.18
2022-11-29T21:19:58.948Z,93.12
2022-11-29T21:22:37.573Z,93.06
2022-11-29T21:24:51.492Z,93.03
2022-11-29T21:26:53.922Z,92.39
2022-11-29T21:29:11.795Z,92.33
2022-11-29T21:31:16.857Z,92.70
2022-11-29T21:33:32.141Z,92.22
2022-11-29T21:35:42.821Z,92.42
2022-11-29T21:37:47.801Z,92.42
2022-11-29T21:39:53.808Z,92.23
2022-11-29T21:41:55.930Z,92.33
2022-11-29T21:44:06.602Z,92.02
2022-11-29T21:46:10.062Z,92.40
2022-11-29T21:48:32.374Z,92.39
2022-11-29T21:50:34.481Z,92.27
2022-11-29T21:52:36.580Z,92.31
2022-11-29T21:54:39.573Z,92.10
2022-11-29T21:56:42.047Z,91.89
2022-11-29T21:58:44.518Z,92.03
2022-11-29T22:00:46.584Z,91.71
2022-11-29T22:02:48.718Z,91.46
2022-11-29T22:04:50.760Z,91.41
2022-11-29T22:06:52.913Z,90.91
2022-11-29T22:08:55.081Z,90.97
2022-11-29T22:11:05.261Z,90.64
2022-11-29T22:13:07.471Z,90.17
2022-11-29T22:15:12.523Z,90.52
2022-11-29T22:17:14.583Z,90.89
2022-11-29T22:19:18.009Z,91.18
2022-11-29T22:21:20.362Z,91.40
2022-11-29T22:23:22.439Z,91.73
2022-11-29T22:25:24.647Z,92.44
2022-11-29T22:27:26.555Z,92.72
2022-11-29T22:29:28.917Z,93.03
2022-11-29T22:31:30.961Z,93.01
2022-11-29T22:33:33.656Z,93.14
2022-11-29T22:35:43.065Z,93.39
2022-11-29T22:37:45.905Z,93.72
2022-11-29T22:39:49.467Z,93.55
2022-11-29T22:41:54.714Z,93.81
2022-11-29T22:43:57.348Z,94.01
2022-11-29T22:46:10.584Z,94.13
2022-11-29T22:48:13.710Z,94.32
2022-11-29T22:50:15.890Z,94.36
2022-11-29T22:52:18.433Z,94.28
2022-11-29T22:54:20.651Z,94.02
2022-11-29T22:56:23.548Z,94.01
2022-11-29T22:58:26.027Z,94.12
2022-11-29T23:00:28.199Z,94.60
2022-11-29T23:02:30.368Z,94.45
2022-11-29T23:04:32.314Z,94.40
2022-11-29T23:06:37.500Z,94.41
2022-11-29T23:08:41.548Z,94.09
2022-11-29T23:10:43.710Z,93.87
2022-11-29T23:12:46.718Z,94.37
2022-11-29T23:14:55.833Z,94.15
2022-11-29T23:16:58.604Z,94.01
2022-11-29T23:19:01.149Z,94.15
2022-11-29T23:21:06.001Z,93.90
2022-11-29T23:23:08.167Z,93.78
2022-11-29T23:25:10.224Z,93.87
2022-11-29T23:27:12.295Z,94.01
2022-11-29T23:29:18.658Z,94.15
2022-11-29T23:31:21.724Z,94.42
2022-11-29T23:33:24.417Z,94.44
2022-11-29T23:35:27.008Z,94.65
2022-11-29T23:37:29.196Z,95.20
2022-11-29T23:39:31.213Z,94.65
2022-11-29T23:41:34.474Z,94.72
2022-11-29T23:43:38.583Z,94.68
2022-11-29T23:45:41.069Z,94.45
2022-11-29T23:47:43.264Z,94.14
2022-11-29T23:49:45.353Z,94.00
2022-11-29T23:51:47.872Z,94.09
2022-11-29T23:53:53.990Z,94.33
2022-11-29T23:56:00.725Z,94.86
2022-11-29T23:58:03.416Z,94.49
